Time;durP1;ratioP1;P1;durP2;ratioP2;P2;SDS_P1;SDS_P2;PMS_P1;PMS_P2;Temp;Humidity;BMP_temperature;BMP_pressure;BME280_temperature;BME280_humidity;BME280_pressure;Samples;Min_cycle;Max_cycle;Signal;HPM_P1;HPM_P2
2021/11/12 00:03:46;;;;;;;215.65;55.33;;;;;;;-0.28;100.00;96308.34;1026845;28;20027;-66
2021/11/12 00:11:54;;;;;;;343.35;64.43;;;;;;;-0.31;100.00;96317.22;1034917;28;20528;-66
2021/11/12 00:13:05;;;;;;;411.90;76.95;;;;;;;-0.35;100.00;96304.91;1031061;28;20010;-65
2021/11/12 00:13:38;;;;;;;341.23;69.05;;;;;;;-0.27;100.00;96318.50;1030794;28;20441;-65
2021/11/12 00:14:09;;;;;;;375.30;75.32;;;;;;;-0.32;100.00;96307.91;1030414;28;20022;-67
2021/11/12 00:14:46;;;;;;;319.70;69.85;;;;;;;-0.30;100.00;96312.91;1027870;28;20015;-68
2021/11/12 00:15:16;;;;;;;428.98;80.80;;;;;;;-0.30;100.00;96316.28;1029306;28;20023;-69
2021/11/12 00:15:50;;;;;;;360.00;70.18;;;;;;;-0.31;100.00;96317.22;1026843;28;20502;-69
2021/11/12 00:16:25;;;;;;;351.48;67.44;;;;;;;-0.28;100.00;96316.88;1020216;28;20012;-68
2021/11/12 00:16:57;;;;;;;398.10;71.24;;;;;;;-0.30;100.00;96315.47;1020927;29;20036;-65
2021/11/12 00:17:29;;;;;;;491.30;88.58;;;;;;;-0.32;100.00;96307.91;1025731;28;20046;-65
2021/11/12 00:18:01;;;;;;;530.12;92.36;;;;;;;-0.35;100.00;96310.84;1029442;28;20535;-65
2021/11/12 00:18:32;;;;;;;501.78;87.20;;;;;;;-0.38;100.00;96300.09;1030963;28;20417;-65
2021/11/12 00:19:03;;;;;;;416.62;77.42;;;;;;;-0.34;100.00;96311.63;1018828;29;20027;-63
2021/11/12 00:19:33;;;;;;;409.85;75.65;;;;;;;-0.31;100.00;96314.66;1023827;28;20050;-64
2021/11/12 00:20:05;;;;;;;426.77;79.50;;;;;;;-0.33;100.00;96314.06;1030343;28;20041;-66
2021/11/12 00:20:35;;;;;;;475.84;86.42;;;;;;;-0.41;100.00;96301.25;1027394;28;20056;-66
2021/11/12 00:21:06;;;;;;;418.52;77.07;;;;;;;-0.37;100.00;96305.09;1039089;28;20386;-66
2021/11/12 00:21:36;;;;;;;452.23;78.95;;;;;;;-0.32;100.00;96309.69;1030727;28;20046;-66
2021/11/12 00:22:07;;;;;;;460.90;82.55;;;;;;;-0.40;100.00;96295.13;1030715;28;20014;-66
2021/11/12 00:22:37;;;;;;;445.95;83.00;;;;;;;-0.30;100.00;96313.69;1022836;29;20023;-65
2021/11/12 00:23:08;;;;;;;489.95;87.10;;;;;;;-0.29;100.00;96309.34;1014519;29;20024;-66
2021/11/12 00:23:38;;;;;;;429.95;78.50;;;;;;;-0.31;100.00;96312.06;1018096;29;20023;-66
2021/11/12 00:24:09;;;;;;;411.52;77.00;;;;;;;-0.34;100.00;96307.28;1018191;28;20059;-66
2021/11/12 00:24:39;;;;;;;369.47;69.87;;;;;;;-0.33;100.00;96315.84;1018394;28;20116;-66
2021/11/12 00:25:10;;;;;;;378.33;74.50;;;;;;;-0.32;100.00;96317.44;1026964;28;20837;-66
2021/11/12 00:25:42;;;;;;;452.23;85.80;;;;;;;-0.29;100.00;96306.75;1030940;28;20050;-65
2021/11/12 00:26:13;;;;;;;480.78;88.56;;;;;;;-0.28;100.00;96306.56;1023289;28;20604;-66
2021/11/12 00:26:43;;;;;;;231.88;59.88;;;;;;;-0.23;100.00;96316.34;1022593;28;20703;-66
2021/11/12 00:27:15;;;;;;;510.42;96.38;;;;;;;-0.27;100.00;96300.44;1018762;29;20447;-65
2021/11/12 00:27:46;;;;;;;554.98;99.28;;;;;;;-0.19;100.00;96304.69;1022225;29;20012;-66
2021/11/12 00:28:21;;;;;;;457.78;80.06;;;;;;;-0.18;100.00;96303.69;1021644;28;20020;-66
2021/11/12 00:28:56;;;;;;;486.00;88.84;;;;;;;-0.16;100.00;96308.69;1026718;28;20074;-65
2021/11/12 00:29:27;;;;;;;361.82;69.30;;;;;;;-0.22;100.00;96306.84;1024233;28;20015;-67
2021/11/12 00:30:09;;;;;;;378.84;73.26;;;;;;;-0.23;100.00;96311.19;1019549;29;20043;-65
2021/11/12 00:31:40;;;;;;;455.18;82.68;;;;;;;-0.25;100.00;96301.03;1022298;28;20039;-66
2021/11/12 00:32:22;;;;;;;450.20;80.56;;;;;;;-0.17;100.00;96307.06;1032271;28;20023;-66
2021/11/12 00:34:02;;;;;;;330.56;69.24;;;;;;;-0.12;100.00;96312.50;1033658;28;20029;-66
2021/11/12 00:35:56;;;;;;;440.48;77.18;;;;;;;-0.10;100.00;96316.50;1034659;28;20049;-69
2021/11/12 00:38:22;;;;;;;376.08;67.97;;;;;;;-0.20;100.00;96320.34;1022431;28;20019;-66
2021/11/12 00:39:00;;;;;;;398.36;68.26;;;;;;;-0.30;100.00;96318.84;1025065;28;20023;-66
2021/11/12 00:39:42;;;;;;;421.56;71.50;;;;;;;-0.41;100.00;96310.75;1026650;28;20081;-63
2021/11/12 00:40:20;;;;;;;387.14;73.90;;;;;;;-0.34;100.00;96320.16;1028010;28;21539;-66
2021/11/12 00:41:00;;;;;;;411.18;76.10;;;;;;;-0.34;100.00;96309.06;1026437;28;20499;-63
2021/11/12 00:43:14;;;;;;;368.16;66.90;;;;;;;-0.31;100.00;96321.59;1025703;28;20067;-65
2021/11/12 00:43:53;;;;;;;367.80;67.18;;;;;;;-0.29;100.00;96324.81;1031697;28;20018;-63
2021/11/12 00:44:32;;;;;;;434.38;75.43;;;;;;;-0.28;100.00;96322.03;1032985;28;20040;-64
2021/11/12 00:45:04;;;;;;;420.72;72.66;;;;;;;-0.33;100.00;96324.38;1029967;28;20037;-66
2021/11/12 00:45:41;;;;;;;446.66;78.98;;;;;;;-0.29;100.00;96320.44;1022928;29;20419;-64
2021/11/12 00:46:50;;;;;;;485.63;81.22;;;;;;;-0.34;100.00;96312.44;1021294;28;20020;-65
2021/11/12 00:47:58;;;;;;;380.55;69.47;;;;;;;-0.26;100.00;96319.28;1028067;28;20018;-65
2021/11/12 00:48:32;;;;;;;455.34;81.10;;;;;;;-0.22;100.00;96320.53;1026951;28;20521;-66
2021/11/12 00:49:08;;;;;;;423.06;73.88;;;;;;;-0.22;100.00;96319.72;1029910;28;20078;-66
2021/11/12 00:49:42;;;;;;;412.70;75.14;;;;;;;-0.26;100.00;96319.28;1029244;28;20019;-66
2021/11/12 00:51:28;;;;;;;598.15;96.78;;;;;;;-0.29;100.00;96304.19;1023810;28;20059;-65
2021/11/12 00:52:09;;;;;;;474.86;81.66;;;;;;;-0.19;100.00;96316.78;1027033;28;20011;-67
2021/11/12 00:53:40;;;;;;;487.28;84.50;;;;;;;-0.20;100.00;96312.59;1022013;29;20154;-66
2021/11/12 00:54:19;;;;;;;505.06;81.00;;;;;;;-0.25;100.00;96308.00;1024037;28;20030;-66
2021/11/12 00:54:50;;;;;;;388.18;68.26;;;;;;;-0.20;100.00;96317.75;1021067;28;20018;-65
2021/11/12 00:55:24;;;;;;;393.48;71.78;;;;;;;-0.19;100.00;96312.44;1019066;29;20655;-66
2021/11/12 00:55:54;;;;;;;422.28;78.66;;;;;;;-0.17;100.00;96310.44;1022223;29;20023;-65
2021/11/12 00:56:26;;;;;;;357.55;70.80;;;;;;;-0.13;100.00;96314.28;1020477;28;20493;-66
2021/11/12 00:56:56;;;;;;;336.92;75.14;;;;;;;-0.10;100.00;96313.94;1028378;28;21982;-66
2021/11/12 00:57:27;;;;;;;197.60;54.30;;;;;;;-0.06;100.00;96315.16;1035289;28;20068;-66
2021/11/12 00:57:58;;;;;;;407.73;77.55;;;;;;;-0.14;100.00;96296.41;1026503;28;20027;-66
2021/11/12 00:58:28;;;;;;;409.28;79.72;;;;;;;-0.13;100.00;96314.28;1030905;28;20046;-66
2021/11/12 00:59:00;;;;;;;401.75;72.60;;;;;;;-0.16;100.00;96301.75;1024698;28;20038;-66
2021/11/12 00:59:31;;;;;;;325.26;61.86;;;;;;;-0.14;100.00;96309.28;1019907;28;20110;-64
2021/11/12 01:00:04;;;;;;;384.02;69.68;;;;;;;-0.16;100.00;96312.06;1025888;28;20031;-64
2021/11/12 01:00:35;;;;;;;340.42;67.66;;;;;;;-0.26;100.00;96299.47;1026911;28;20042;-66
2021/11/12 01:01:05;;;;;;;340.30;66.80;;;;;;;-0.13;100.00;96308.34;1023257;29;20031;-63
2021/11/12 01:01:38;;;;;;;378.46;71.64;;;;;;;-0.19;100.00;96301.31;1022529;28;20396;-63
2021/11/12 01:02:08;;;;;;;408.66;74.36;;;;;;;-0.15;100.00;96310.28;1028636;28;20073;-66
2021/11/12 01:02:39;;;;;;;375.33;63.42;;;;;;;-0.20;100.00;96310.00;1028997;28;20026;-66
2021/11/12 01:03:09;;;;;;;479.92;80.43;;;;;;;-0.22;100.00;96309.41;1028693;28;20030;-66
2021/11/12 01:03:40;;;;;;;332.85;62.15;;;;;;;-0.31;100.00;96304.34;1025419;28;20042;-66
2021/11/12 01:04:13;;;;;;;407.17;70.38;;;;;;;-0.25;100.00;96311.38;1014490;29;20039;-64
2021/11/12 01:04:44;;;;;;;434.66;75.78;;;;;;;-0.22;100.00;96312.78;1019375;28;20487;-66
2021/11/12 01:05:14;;;;;;;523.64;92.12;;;;;;;-0.22;100.00;96315.38;1023666;28;20028;-65
2021/11/12 01:05:45;;;;;;;529.22;91.80;;;;;;;-0.20;100.00;96313.41;1027796;28;20027;-66
2021/11/12 01:06:15;;;;;;;450.85;75.53;;;;;;;-0.21;100.00;96311.00;1030276;28;20018;-66
2021/11/12 01:06:46;;;;;;;439.52;75.72;;;;;;;-0.25;100.00;96306.19;1026668;28;20027;-67
2021/11/12 01:07:17;;;;;;;554.85;93.65;;;;;;;-0.17;100.00;96307.06;1024005;28;20466;-66
2021/11/12 01:07:47;;;;;;;503.52;85.68;;;;;;;-0.14;100.00;96311.88;1026025;28;20457;-65
2021/11/12 01:08:18;;;;;;;472.42;80.88;;;;;;;-0.17;100.00;96307.06;1026536;28;20034;-65
2021/11/12 01:08:49;;;;;;;452.70;77.30;;;;;;;-0.24;100.00;96297.47;1022311;29;20058;-66
2021/11/12 01:09:22;;;;;;;392.15;65.03;;;;;;;-0.24;100.00;96312.94;1023901;28;20078;-66
2021/11/12 01:09:53;;;;;;;284.10;56.34;;;;;;;-0.18;100.00;96316.59;1023129;28;20023;-66
2021/11/12 01:10:23;;;;;;;371.52;69.50;;;;;;;-0.18;100.00;96310.66;1022920;29;20126;-66
2021/11/12 01:10:55;;;;;;;446.67;72.57;;;;;;;-0.17;100.00;96309.66;1026221;28;20473;-66
2021/11/12 01:11:26;;;;;;;430.98;73.60;;;;;;;-0.27;100.00;96300.44;1019190;29;20028;-66
2021/11/12 01:11:57;;;;;;;416.52;75.34;;;;;;;-0.19;100.00;96309.06;1015420;29;20103;-65
2021/11/12 01:12:28;;;;;;;369.33;70.93;;;;;;;-0.25;100.00;96293.31;1019374;29;20027;-68
2021/11/12 01:13:02;;;;;;;375.96;71.40;;;;;;;-0.22;100.00;96299.91;1021546;28;20039;-65
2021/11/12 01:13:32;;;;;;;449.56;83.18;;;;;;;-0.17;100.00;96307.06;1023669;28;20027;-66
2021/11/12 01:14:04;;;;;;;452.80;68.72;;;;;;;-0.27;100.00;96305.59;1018846;29;20024;-65
2021/11/12 01:14:34;;;;;;;445.50;74.70;;;;;;;-0.24;100.00;96305.22;1018908;29;20030;-66
2021/11/12 01:15:06;;;;;;;311.35;61.30;;;;;;;-0.32;100.00;96289.84;1019283;29;20035;-66
2021/11/12 01:15:37;;;;;;;422.16;79.02;;;;;;;-0.17;100.00;96305.28;1019793;28;20023;-65
2021/11/12 01:16:07;;;;;;;370.20;68.30;;;;;;;-0.19;100.00;96296.16;1027183;28;20093;-66
2021/11/12 01:16:38;;;;;;;510.25;85.72;;;;;;;-0.15;100.00;96300.75;1022852;29;20019;-65
2021/11/12 01:17:09;;;;;;;492.35;79.40;;;;;;;-0.17;100.00;96301.91;1019073;29;20041;-63
2021/11/12 01:17:40;;;;;;;427.64;74.76;;;;;;;-0.17;100.00;96307.06;1018505;29;20066;-66
2021/11/12 01:18:11;;;;;;;395.23;66.80;;;;;;;-0.18;100.00;96305.50;1022543;28;20041;-64
2021/11/12 01:18:42;;;;;;;424.23;62.95;;;;;;;-0.18;100.00;96301.13;1027163;28;20077;-66
2021/11/12 01:19:12;;;;;;;466.74;75.94;;;;;;;-0.22;100.00;96302.47;1027195;28;20023;-66
2021/11/12 01:19:43;;;;;;;433.88;61.70;;;;;;;-0.34;100.00;96307.28;1030619;28;20034;-66
2021/11/12 01:20:15;;;;;;;411.45;59.42;;;;;;;-0.46;100.00;96287.31;1035022;28;20072;-65
2021/11/12 01:20:45;;;;;;;430.74;62.06;;;;;;;-0.39;100.00;96304.44;1027046;28;20034;-65
2021/11/12 01:21:16;;;;;;;421.45;71.82;;;;;;;-0.35;100.00;96305.69;1027167;28;20027;-66
2021/11/12 01:21:47;;;;;;;439.98;75.55;;;;;;;-0.37;100.00;96299.94;1031409;28;20036;-66
2021/11/12 01:22:17;;;;;;;371.77;66.43;;;;;;;-0.32;100.00;96310.47;1023446;28;20485;-66
2021/11/12 01:22:48;;;;;;;391.95;66.88;;;;;;;-0.34;100.00;96299.53;1019372;29;20043;-66
2021/11/12 01:23:19;;;;;;;419.38;66.20;;;;;;;-0.36;100.00;96306.69;1014844;29;20063;-66
2021/11/12 01:23:50;;;;;;;457.48;71.22;;;;;;;-0.38;100.00;96306.03;1015244;29;20460;-66
2021/11/12 01:24:21;;;;;;;480.22;79.14;;;;;;;-0.40;100.00;96296.88;1015215;29;20492;-66
2021/11/12 01:24:51;;;;;;;480.33;67.32;;;;;;;-0.46;100.00;96290.69;1022542;28;20027;-64
2021/11/12 01:25:22;;;;;;;404.00;69.75;;;;;;;-0.36;100.00;96304.09;1023158;29;20032;-66
2021/11/12 01:25:52;;;;;;;378.05;66.15;;;;;;;-0.29;100.00;96304.19;1019176;29;20020;-66
2021/11/12 01:26:23;;;;;;;465.02;75.80;;;;;;;-0.29;100.00;96296.44;1014854;29;20027;-66
2021/11/12 01:26:53;;;;;;;497.60;84.97;;;;;;;-0.27;100.00;96303.03;1022937;29;20031;-65
2021/11/12 01:27:24;;;;;;;464.80;75.13;;;;;;;-0.27;100.00;96303.03;1023135;29;20027;-66
2021/11/12 01:27:54;;;;;;;385.95;66.13;;;;;;;-0.27;100.00;96299.63;1018220;29;20024;-66
2021/11/12 01:28:25;;;;;;;441.60;71.28;;;;;;;-0.28;100.00;96305.78;1019148;28;20023;-66
2021/11/12 01:28:55;;;;;;;409.08;69.28;;;;;;;-0.29;100.00;96299.03;1027106;28;20079;-65
2021/11/12 01:29:26;;;;;;;448.30;76.10;;;;;;;-0.26;100.00;96302.03;1031260;28;20023;-66
2021/11/12 01:29:57;;;;;;;423.42;69.22;;;;;;;-0.30;100.00;96300.81;1025123;28;20054;-66
2021/11/12 01:30:30;;;;;;;424.24;69.56;;;;;;;-0.27;100.00;96297.88;1027115;28;20062;-66
2021/11/12 01:31:00;;;;;;;420.83;70.80;;;;;;;-0.28;100.00;96301.41;1023330;29;20031;-66
2021/11/12 01:31:31;;;;;;;358.35;64.03;;;;;;;-0.36;100.00;96293.00;1026636;28;20062;-64
2021/11/12 01:32:51;;;;;;;409.50;70.82;;;;;;;-0.37;100.00;96286.22;1028167;28;20797;-63
2021/11/12 01:33:22;;;;;;;388.25;71.35;;;;;;;-0.34;100.00;96291.00;1023080;29;20034;-66
2021/11/12 01:33:53;;;;;;;365.30;72.40;;;;;;;-0.27;100.00;96297.03;1019987;29;20024;-65
2021/11/12 01:34:24;;;;;;;302.82;60.20;;;;;;;-0.26;100.00;96298.66;1022519;28;20038;-67
2021/11/12 01:34:55;;;;;;;406.70;77.90;;;;;;;-0.25;100.00;96301.03;1022724;28;20042;-66
2021/11/12 01:35:26;;;;;;;425.90;76.12;;;;;;;-0.32;100.00;96291.66;1023972;28;20027;-67
2021/11/12 01:36:02;;;;;;;388.65;70.70;;;;;;;-0.31;100.00;96294.03;1023303;29;20039;-67
2021/11/12 01:36:37;;;;;;;366.10;72.22;;;;;;;-0.27;100.00;96292.72;1025002;28;20082;-67
2021/11/12 01:37:07;;;;;;;326.52;64.26;;;;;;;-0.24;100.00;96292.31;1036287;28;20030;-67
2021/11/12 01:37:39;;;;;;;232.48;54.38;;;;;;;-0.20;100.00;96294.53;1026354;28;20039;-64
2021/11/12 01:38:09;;;;;;;391.24;72.64;;;;;;;-0.24;100.00;96289.75;1019381;29;20035;-67
2021/11/12 01:38:39;;;;;;;353.40;66.30;;;;;;;-0.30;100.00;96287.91;1018806;29;20028;-67
2021/11/12 01:39:17;;;;;;;332.92;68.30;;;;;;;-0.20;100.00;96297.94;1019246;29;20881;-67
2021/11/12 01:39:57;;;;;;;325.56;66.78;;;;;;;-0.21;100.00;96291.16;1027036;28;20026;-66
2021/11/12 01:40:29;;;;;;;374.36;72.22;;;;;;;-0.17;100.00;96291.59;1023130;29;20031;-66
2021/11/12 01:41:00;;;;;;;393.88;71.24;;;;;;;-0.19;100.00;96289.22;1023137;29;20515;-66
2021/11/12 01:41:31;;;;;;;407.66;66.80;;;;;;;-0.21;100.00;96293.75;1026953;28;20114;-66
2021/11/12 01:42:02;;;;;;;351.20;61.50;;;;;;;-0.26;100.00;96294.31;1032697;28;20429;-66
2021/11/12 01:42:55;;;;;;;296.67;55.38;;;;;;;-0.33;100.00;96292.63;1034610;28;20026;-67
2021/11/12 01:43:28;;;;;;;328.42;57.42;;;;;;;-0.35;100.00;96286.84;1029986;28;20015;-66
2021/11/12 01:44:00;;;;;;;354.62;62.92;;;;;;;-0.36;100.00;96293.78;1031111;28;20034;-66
2021/11/12 01:44:39;;;;;;;423.70;72.24;;;;;;;-0.34;100.00;96296.97;1030729;28;20490;-66
2021/11/12 01:45:10;;;;;;;360.76;65.72;;;;;;;-0.35;100.00;96292.00;1022967;28;20023;-66
2021/11/12 01:46:26;;;;;;;410.10;67.44;;;;;;;-0.31;100.00;96296.59;1022386;29;20534;-66
2021/11/12 01:49:45;;;;;;;354.88;65.68;;;;;;;-0.43;100.00;96292.91;1024847;28;20031;-66
2021/11/12 01:50:20;;;;;;;397.92;74.24;;;;;;;-0.38;100.00;96290.56;1030106;28;20635;-66
2021/11/12 01:51:03;;;;;;;375.18;69.90;;;;;;;-0.37;100.00;96287.03;1032297;28;20033;-63
2021/11/12 01:52:23;;;;;;;450.04;75.26;;;;;;;-0.33;100.00;96293.44;1033276;28;20109;-65
2021/11/12 01:53:06;;;;;;;401.86;69.10;;;;;;;-0.39;100.00;96283.03;1034981;28;20030;-66
2021/11/12 01:53:40;;;;;;;387.20;68.28;;;;;;;-0.32;100.00;96295.00;1033962;28;20084;-68
2021/11/12 01:55:12;;;;;;;378.16;65.74;;;;;;;-0.32;100.00;96294.22;1030376;28;20074;-66
2021/11/12 01:55:55;;;;;;;378.78;68.46;;;;;;;-0.34;100.00;96285.84;1026589;28;20162;-67
2021/11/12 01:58:37;;;;;;;452.23;74.32;;;;;;;-0.42;100.00;96289.34;1034338;28;20045;-66
2021/11/12 01:59:11;;;;;;;448.84;74.78;;;;;;;-0.40;100.00;96286.56;1030515;28;20042;-67
2021/11/12 01:59:41;;;;;;;353.82;59.58;;;;;;;-0.43;100.00;96290.34;1026527;28;20060;-67
2021/11/12 02:00:13;;;;;;;462.85;75.80;;;;;;;-0.42;100.00;96283.41;1026342;28;20032;-67
2021/11/12 02:00:43;;;;;;;439.84;68.86;;;;;;;-0.46;100.00;96282.16;1022221;28;20585;-67
2021/11/12 02:01:14;;;;;;;349.02;63.25;;;;;;;-0.46;100.00;96282.94;1022719;28;20054;-66
2021/11/12 02:01:50;;;;;;;415.85;71.25;;;;;;;-0.41;100.00;96285.78;1026520;28;20027;-67
2021/11/12 02:02:22;;;;;;;451.74;75.92;;;;;;;-0.42;100.00;96279.03;1025911;28;20469;-67
2021/11/12 02:02:54;;;;;;;453.60;72.74;;;;;;;-0.47;100.00;96273.59;1026453;28;20046;-67
2021/11/12 02:03:24;;;;;;;361.38;64.72;;;;;;;-0.41;100.00;96274.66;1018370;29;20126;-67
2021/11/12 02:03:55;;;;;;;265.85;55.85;;;;;;;-0.41;100.00;96280.63;1019548;28;20032;-67
2021/11/12 02:04:27;;;;;;;393.23;69.50;;;;;;;-0.41;100.00;96277.25;1018219;29;20046;-66
2021/11/12 02:04:58;;;;;;;449.58;74.56;;;;;;;-0.46;100.00;96269.28;1018792;29;20024;-67
2021/11/12 02:05:28;;;;;;;321.55;61.80;;;;;;;-0.49;100.00;96271.22;1021713;29;20642;-63
2021/11/12 02:05:59;;;;;;;448.40;77.82;;;;;;;-0.47;100.00;96268.44;1019809;28;20039;-67
2021/11/12 02:06:31;;;;;;;508.70;83.35;;;;;;;-0.38;100.00;96274.31;1018625;29;20130;-67
2021/11/12 02:07:01;;;;;;;450.06;73.20;;;;;;;-0.38;100.00;96269.94;1022355;29;20688;-69
2021/11/12 02:07:35;;;;;;;380.80;66.57;;;;;;;-0.57;100.00;96240.41;1021017;28;20034;-65
2021/11/12 02:08:05;;;;;;;423.86;75.02;;;;;;;-0.38;100.00;96269.94;1018623;29;20511;-66
2021/11/12 02:08:35;;;;;;;386.52;64.60;;;;;;;-0.39;100.00;96272.72;1015174;29;20062;-67
2021/11/12 02:09:17;;;;;;;447.15;79.53;;;;;;;-0.35;100.00;96268.78;1014906;29;20047;-66
2021/11/12 02:09:48;;;;;;;372.82;71.96;;;;;;;-0.32;100.00;96269.22;1016001;29;20596;-67
2021/11/12 02:10:20;;;;;;;393.42;72.68;;;;;;;-0.33;100.00;96266.84;1019804;29;20028;-67
2021/11/12 02:10:51;;;;;;;437.24;71.50;;;;;;;-0.35;100.00;96268.78;1018594;29;20519;-66
2021/11/12 02:11:22;;;;;;;396.38;71.60;;;;;;;-0.35;100.00;96263.66;1022251;28;20034;-67
2021/11/12 02:11:55;;;;;;;333.95;65.05;;;;;;;-0.40;100.00;96259.03;1018708;29;20543;-67
2021/11/12 02:12:32;;;;;;;369.40;67.50;;;;;;;-0.32;100.00;96268.44;1014771;29;20039;-66
2021/11/12 02:13:08;;;;;;;334.06;58.26;;;;;;;-0.32;100.00;96258.91;1014373;29;20540;-67
2021/11/12 02:13:40;;;;;;;353.84;60.88;;;;;;;-0.37;100.00;96263.00;1012697;29;20137;-67
2021/11/12 02:14:12;;;;;;;431.08;76.78;;;;;;;-0.33;100.00;96265.06;1016706;29;20036;-63
2021/11/12 02:14:44;;;;;;;407.10;63.56;;;;;;;-0.43;100.00;96251.66;1020369;29;20035;-67
2021/11/12 02:15:15;;;;;;;378.14;68.34;;;;;;;-0.48;100.00;96246.25;1023950;28;20081;-66
2021/11/12 02:15:46;;;;;;;276.35;54.08;;;;;;;-0.35;100.00;96258.50;1026869;28;20557;-66
2021/11/12 02:16:24;;;;;;;292.52;59.24;;;;;;;-0.32;100.00;96258.13;1026198;28;20033;-67
2021/11/12 02:17:04;;;;;;;368.10;66.58;;;;;;;-0.31;100.00;96263.09;1023510;28;20063;-66
2021/11/12 02:17:36;;;;;;;280.50;59.53;;;;;;;-0.30;100.00;96259.56;1022549;29;20146;-67
2021/11/12 02:18:27;;;;;;;439.02;73.72;;;;;;;-0.31;100.00;96255.34;1021730;29;20514;-67
2021/11/12 02:18:58;;;;;;;307.95;54.33;;;;;;;-0.32;100.00;96253.75;1024981;28;20077;-63
2021/11/12 02:19:28;;;;;;;446.12;70.98;;;;;;;-0.32;100.00;96253.75;1029315;28;20113;-64
2021/11/12 02:20:36;;;;;;;300.90;60.08;;;;;;;-0.36;100.00;96252.53;1026289;28;20027;-67
2021/11/12 02:21:00;;;;;;;362.16;64.12;;;;;;;-0.31;100.00;96250.19;1024888;28;20051;-67
2021/11/12 02:21:56;;;;;;;321.46;60.26;;;;;;;-0.30;100.00;96251.81;1017389;29;20527;-64
2021/11/12 02:22:31;;;;;;;415.88;71.96;;;;;;;-0.34;100.00;96254.91;1025977;28;20026;-66
2021/11/12 02:23:03;;;;;;;317.02;58.22;;;;;;;-0.35;100.00;96245.59;1022719;28;20419;-66
2021/11/12 02:23:39;;;;;;;333.86;61.22;;;;;;;-0.41;100.00;96246.31;1030304;28;20065;-66
2021/11/12 02:24:12;;;;;;;324.34;61.48;;;;;;;-0.41;100.00;96244.53;1026407;28;21003;-67
2021/11/12 02:24:49;;;;;;;394.26;67.86;;;;;;;-0.48;100.00;96234.16;1027376;28;20025;-67
2021/11/12 02:25:33;;;;;;;347.86;64.72;;;;;;;-0.44;100.00;96254.41;1022470;29;20586;-67
2021/11/12 02:26:07;;;;;;;427.22;72.72;;;;;;;-0.44;100.00;96247.47;1021859;29;20082;-67
2021/11/12 02:26:43;;;;;;;325.16;65.02;;;;;;;-0.43;100.00;96248.28;1011266;29;20029;-63
2021/11/12 02:27:16;;;;;;;388.18;67.74;;;;;;;-0.48;100.00;96235.94;1014344;29;20109;-67
2021/11/12 02:28:27;;;;;;;320.66;63.96;;;;;;;-0.38;100.00;96248.53;1024447;28;20493;-66
2021/11/12 02:28:58;;;;;;;327.64;61.92;;;;;;;-0.39;100.00;96244.38;1023896;28;20023;-67
2021/11/12 02:29:30;;;;;;;447.34;77.36;;;;;;;-0.39;100.00;96245.16;1022575;29;20114;-66
2021/11/12 02:30:02;;;;;;;321.14;63.98;;;;;;;-0.45;100.00;96245.88;1022347;29;20566;-66
2021/11/12 02:30:33;;;;;;;314.94;63.00;;;;;;;-0.43;100.00;96245.72;1023718;28;20550;-67
2021/11/12 02:31:04;;;;;;;383.22;72.46;;;;;;;-0.39;100.00;96242.59;1030878;28;20018;-67
2021/11/12 02:31:35;;;;;;;350.73;69.07;;;;;;;-0.41;100.00;96239.38;1025880;28;20027;-66
2021/11/12 02:32:17;;;;;;;320.58;65.22;;;;;;;-0.35;100.00;96248.97;1018380;29;20032;-66
2021/11/12 02:32:58;;;;;;;377.74;73.54;;;;;;;-0.37;100.00;96244.97;1022512;29;20023;-67
2021/11/12 02:33:33;;;;;;;368.14;72.28;;;;;;;-0.32;100.00;96248.63;1025281;28;20031;-66
2021/11/12 02:34:11;;;;;;;387.74;69.24;;;;;;;-0.33;100.00;96241.88;1022659;29;20496;-66
2021/11/12 02:34:42;;;;;;;330.68;65.04;;;;;;;-0.32;100.00;96240.88;1021031;29;20139;-63
2021/11/12 02:35:13;;;;;;;436.60;79.16;;;;;;;-0.28;100.00;96249.03;1020290;29;20027;-66
2021/11/12 02:36:00;;;;;;;410.52;70.10;;;;;;;-0.29;100.00;96248.25;1017935;29;20644;-67
2021/11/12 02:36:31;;;;;;;358.26;71.98;;;;;;;-0.27;100.00;96236.00;1020452;28;20026;-64
2021/11/12 02:37:01;;;;;;;410.67;72.20;;;;;;;-0.27;100.00;96243.72;1025410;28;20107;-67
2021/11/12 02:37:32;;;;;;;351.88;69.88;;;;;;;-0.29;100.00;96231.97;1029748;28;20965;-66
2021/11/12 02:38:04;;;;;;;471.92;76.25;;;;;;;-0.24;100.00;96243.34;1027009;28;20023;-67
2021/11/12 02:38:36;;;;;;;567.18;95.02;;;;;;;-0.33;100.00;96231.56;1019621;29;20629;-68
2021/11/12 02:39:10;;;;;;;420.48;74.78;;;;;;;-0.28;100.00;96239.53;1017960;29;20024;-62
2021/11/12 02:39:41;;;;;;;401.42;67.46;;;;;;;-0.37;100.00;96225.16;1020910;28;20016;-64
2021/11/12 02:40:11;;;;;;;401.10;70.94;;;;;;;-0.34;100.00;96240.25;1020938;28;20027;-64
2021/11/12 02:40:42;;;;;;;383.25;68.07;;;;;;;-0.35;100.00;96243.81;1024290;28;20035;-63
2021/11/12 02:41:12;;;;;;;409.05;73.30;;;;;;;-0.32;100.00;96232.34;1022352;28;20015;-66
2021/11/12 02:41:43;;;;;;;425.05;73.78;;;;;;;-0.38;100.00;96228.72;1019298;28;20035;-67
2021/11/12 02:42:13;;;;;;;421.08;68.60;;;;;;;-0.43;100.00;96231.03;1019382;29;20027;-62
2021/11/12 02:42:44;;;;;;;429.55;68.25;;;;;;;-0.45;100.00;96227.03;1020452;29;20486;-65
2021/11/12 02:43:14;;;;;;;377.98;67.03;;;;;;;-0.40;100.00;96235.84;1022318;28;20648;-62
2021/11/12 02:43:46;;;;;;;450.23;73.93;;;;;;;-0.38;100.00;96233.06;1008939;29;20187;-66
2021/11/12 02:44:19;;;;;;;454.56;76.64;;;;;;;-0.41;100.00;96234.22;1016772;29;20103;-67
2021/11/12 02:44:49;;;;;;;320.48;62.28;;;;;;;-0.44;100.00;96226.06;1019638;29;20570;-66
2021/11/12 02:45:20;;;;;;;429.58;69.93;;;;;;;-0.39;100.00;96231.47;1018347;28;20020;-63
2021/11/12 02:45:51;;;;;;;363.85;70.25;;;;;;;-0.46;100.00;96218.50;1024178;28;20730;-63
2021/11/12 02:46:23;;;;;;;325.46;63.64;;;;;;;-0.35;100.00;96233.50;1021480;28;20110;-66
2021/11/12 02:46:53;;;;;;;401.92;69.20;;;;;;;-0.38;100.00;96230.50;1021690;28;20082;-66
2021/11/12 02:47:24;;;;;;;505.10;81.90;;;;;;;-0.37;100.00;96234.66;1020826;28;20156;-63
2021/11/12 02:47:55;;;;;;;472.35;81.18;;;;;;;-0.38;100.00;96233.06;1023759;28;20191;-66
2021/11/12 02:48:25;;;;;;;260.48;56.50;;;;;;;-0.39;100.00;96229.69;1021494;28;20674;-66
2021/11/12 02:48:56;;;;;;;397.17;76.20;;;;;;;-0.38;100.00;96233.06;1020471;29;20290;-64
2021/11/12 02:49:27;;;;;;;425.58;73.20;;;;;;;-0.37;100.00;96232.91;1015109;29;20024;-66
2021/11/12 02:49:58;;;;;;;408.38;75.93;;;;;;;-0.39;100.00;96229.69;1017250;29;20020;-65
2021/11/12 02:50:29;;;;;;;420.62;77.36;;;;;;;-0.35;100.00;96224.97;1018558;29;20036;-65
2021/11/12 02:50:59;;;;;;;472.63;84.82;;;;;;;-0.39;100.00;96216.00;1018608;28;20019;-63
2021/11/12 02:51:33;;;;;;;323.77;69.43;;;;;;;-0.32;100.00;96227.19;1024889;28;20503;-65
2021/11/12 02:52:08;;;;;;;418.34;72.98;;;;;;;-0.30;100.00;96231.19;1023921;28;20113;-63
2021/11/12 02:52:40;;;;;;;380.54;75.28;;;;;;;-0.32;100.00;96222.81;1023964;28;20026;-64
2021/11/12 02:53:14;;;;;;;351.16;64.66;;;;;;;-0.28;100.00;96234.38;1024525;28;20523;-66
2021/11/12 02:53:45;;;;;;;380.08;71.40;;;;;;;-0.37;100.00;96219.19;1022958;28;20027;-66
2021/11/12 02:54:15;;;;;;;396.04;72.34;;;;;;;-0.47;100.00;96201.44;1022812;28;20023;-63
2021/11/12 02:54:47;;;;;;;357.23;70.10;;;;;;;-0.29;100.00;96231.97;1019721;29;20020;-67
2021/11/12 02:55:18;;;;;;;316.10;65.82;;;;;;;-0.24;100.00;96234.81;1018425;28;20019;-67
2021/11/12 02:55:49;;;;;;;397.70;73.63;;;;;;;-0.26;100.00;96231.63;1018465;29;20017;-67
2021/11/12 02:56:26;;;;;;;392.05;74.70;;;;;;;-0.27;100.00;96230.84;1018263;29;20091;-64
2021/11/12 02:56:58;;;;;;;357.80;67.24;;;;;;;-0.31;100.00;96226.19;1021246;28;20041;-67
2021/11/12 02:57:33;;;;;;;447.18;79.22;;;;;;;-0.44;100.00;96205.44;1018236;29;20530;-65
2021/11/12 02:58:04;;;;;;;372.08;70.68;;;;;;;-0.31;100.00;96231.34;1021619;28;20777;-66
2021/11/12 02:58:37;;;;;;;507.50;83.32;;;;;;;-0.27;100.00;96230.84;1019238;29;20032;-63